Terminal Aerodrome Forecast
Issued by NWS

Home | Current Version | Previous Version | Text Only | Print | Product List | Glossary On
Versions: 1 2 3 4 5 6 7 8 9 10 11 12 13 14 15 16 17 18 19 20 21 22 23 24 25 26 27 28 29 30 31
000
FTUS43 KGLD 192335
TAFMCK
TAF
KMCK 192335Z 2000/2024 20018G27KT P6SM FEW250
     FM200300 28013KT P6SM FEW250 WS020/28035KT
     FM200800 34009KT P6SM FEW250
     FM201900 03004KT P6SM FEW250
     FM202000 11005KT P6SM FEW250=

USA.gov is the U.S. government's official web portal to all federal, state and local government web resources and services.